createdAt,value
2022-09-09T00:00:49.728Z,95509.91
2022-09-09T00:03:22.038Z,95509.91
2022-09-09T00:06:00.245Z,95495.44
2022-09-09T00:08:40.167Z,95506.09
2022-09-09T00:11:13.627Z,95506.03
2022-09-09T00:13:48.708Z,95500.84
2022-09-09T00:16:21.240Z,95504.28
2022-09-09T00:18:57.695Z,95490.94
2022-09-09T00:21:33.487Z,95504.22
2022-09-09T00:24:06.896Z,95496.03
2022-09-09T00:26:42.084Z,95490.56
2022-09-09T00:29:22.315Z,95483.50
2022-09-09T00:31:50.260Z,95474.91
2022-09-09T00:34:23.619Z,95440.25
2022-09-09T00:36:54.467Z,95474.84
2022-09-09T00:39:29.914Z,95468.53
2022-09-09T00:42:14.847Z,95466.16
2022-09-09T00:45:01.121Z,95464.56
2022-09-09T00:47:47.734Z,95460.56
2022-09-09T00:50:31.634Z,95470.31
2022-09-09T00:53:13.343Z,95473.03
2022-09-09T00:55:50.552Z,95468.06
2022-09-09T00:58:19.842Z,95470.75
2022-09-09T01:00:55.154Z,95463.25
2022-09-09T01:03:35.708Z,95441.09
2022-09-09T01:06:07.645Z,95468.22
2022-09-09T01:09:00.968Z,95452.13
2022-09-09T01:11:39.345Z,95460.28
2022-09-09T01:14:27.078Z,95465.41
2022-09-09T01:16:58.566Z,95444.50
2022-09-09T01:19:35.835Z,95448.84
2022-09-09T01:22:12.636Z,95467.63
2022-09-09T01:24:46.412Z,95469.63
2022-09-09T01:27:19.148Z,95468.06
2022-09-09T01:29:47.765Z,95457.09
2022-09-09T01:32:40.999Z,95457.56
2022-09-09T01:35:12.899Z,95471.94
2022-09-09T01:37:40.893Z,95470.03
2022-09-09T01:40:10.310Z,95478.63
2022-09-09T01:42:39.672Z,95489.13
2022-09-09T01:45:08.936Z,95481.72
2022-09-09T01:47:37.747Z,95486.00
2022-09-09T01:50:06.491Z,95465.44
2022-09-09T01:52:38.221Z,95483.50
2022-09-09T01:55:07.408Z,95490.88
2022-09-09T01:57:43.983Z,95490.59
2022-09-09T02:00:14.565Z,95496.00
2022-09-09T02:02:50.869Z,95459.97
2022-09-09T02:05:30.720Z,95484.63
2022-09-09T02:08:05.312Z,95492.59
2022-09-09T02:10:38.149Z,95489.34
2022-09-09T02:13:11.975Z,95473.66
2022-09-09T02:15:49.389Z,95483.88
2022-09-09T02:18:24.458Z,95460.44
2022-09-09T02:20:53.904Z,95438.47
2022-09-09T02:23:22.987Z,95414.75
2022-09-09T02:25:53.979Z,95447.28
2022-09-09T02:28:26.439Z,95475.16
2022-09-09T02:30:56.284Z,95430.38
2022-09-09T02:33:29.172Z,95476.31
2022-09-09T02:36:02.868Z,95456.75
2022-09-09T02:38:36.167Z,95428.88
2022-09-09T02:41:05.117Z,95486.63
2022-09-09T02:43:35.855Z,95468.94
2022-09-09T02:46:15.110Z,95493.97
2022-09-09T02:48:52.647Z,95438.16
2022-09-09T02:51:26.680Z,95494.50
2022-09-09T02:54:01.972Z,95494.00
2022-09-09T02:56:34.808Z,95488.88
2022-09-09T02:59:07.037Z,95493.41
2022-09-09T03:01:36.673Z,95486.66
2022-09-09T03:04:06.105Z,95484.84
2022-09-09T03:06:33.964Z,95496.44
2022-09-09T03:09:03.541Z,95497.94
2022-09-09T03:11:31.370Z,95492.88
2022-09-09T03:13:59.244Z,95499.66
2022-09-09T03:16:28.590Z,95493.91
2022-09-09T03:18:56.484Z,95494.22
2022-09-09T03:21:24.356Z,95490.78
2022-09-09T03:23:52.242Z,95500.84
2022-09-09T03:26:20.423Z,95487.88
2022-09-09T03:28:48.309Z,95479.53
2022-09-09T03:31:16.268Z,95493.63
2022-09-09T03:33:45.569Z,95488.50
2022-09-09T03:36:13.632Z,95493.59
2022-09-09T03:38:41.587Z,95496.72
2022-09-09T03:41:09.892Z,95425.22
2022-09-09T03:43:38.646Z,95491.38
2022-09-09T03:46:06.985Z,95482.91
2022-09-09T03:48:34.981Z,95485.44
2022-09-09T03:51:04.249Z,95499.81
2022-09-09T03:53:32.903Z,95498.22
2022-09-09T03:56:01.777Z,95502.47
2022-09-09T03:58:30.443Z,95502.59
2022-09-09T04:00:59.719Z,95502.28
2022-09-09T04:03:28.644Z,95503.97
2022-09-09T04:05:57.709Z,95494.41
2022-09-09T04:08:27.897Z,95496.41
2022-09-09T04:10:59.375Z,95510.47
2022-09-09T04:13:28.166Z,95482.38
2022-09-09T04:15:58.073Z,95503.78
2022-09-09T04:18:27.006Z,95470.97
2022-09-09T04:20:55.663Z,95503.06
2022-09-09T04:23:25.115Z,95499.16
2022-09-09T04:25:55.937Z,95489.59
2022-09-09T04:28:25.960Z,95461.09
2022-09-09T04:30:54.397Z,95509.59
2022-09-09T04:33:22.603Z,95491.88
2022-09-09T04:35:54.721Z,95501.22
2022-09-09T04:38:23.652Z,95504.25
2022-09-09T04:40:54.899Z,95493.34
2022-09-09T04:43:27.036Z,95502.56
2022-09-09T04:45:55.103Z,95515.03
2022-09-09T04:48:23.494Z,95450.72
2022-09-09T04:50:59.145Z,95489.25
2022-09-09T04:53:27.465Z,95501.75
2022-09-09T04:56:02.768Z,95494.81
2022-09-09T04:58:32.049Z,95499.28
2022-09-09T05:01:06.481Z,95495.59
2022-09-09T05:03:34.641Z,95491.19
2022-09-09T05:06:07.539Z,95498.41
2022-09-09T05:08:35.554Z,95486.00
2022-09-09T05:11:04.117Z,95470.78
2022-09-09T05:13:34.087Z,95485.69
2022-09-09T05:16:03.813Z,95482.91
2022-09-09T05:18:31.764Z,95479.44
2022-09-09T05:21:01.800Z,95485.31
2022-09-09T05:23:29.691Z,95486.84
2022-09-09T05:25:58.601Z,95487.53
2022-09-09T05:28:27.560Z,95472.53
2022-09-09T05:31:01.575Z,95476.97
2022-09-09T05:33:29.814Z,95476.31
2022-09-09T05:35:59.917Z,95476.53
2022-09-09T05:38:28.860Z,95475.66
2022-09-09T05:40:58.104Z,95482.63
2022-09-09T05:43:26.570Z,95477.78
2022-09-09T05:46:06.996Z,95484.84
2022-09-09T05:48:36.339Z,95485.47
2022-09-09T05:51:04.584Z,95483.75
2022-09-09T05:53:35.176Z,95483.38
2022-09-09T05:56:05.472Z,95487.50
2022-09-09T05:58:33.999Z,95490.53
2022-09-09T06:01:09.222Z,95452.50
2022-09-09T06:03:37.771Z,95497.28
2022-09-09T06:06:07.596Z,95501.06
2022-09-09T06:08:38.155Z,95506.00
2022-09-09T06:11:07.475Z,95505.72
2022-09-09T06:13:36.217Z,95502.31
2022-09-09T06:16:06.241Z,95476.41
2022-09-09T06:18:34.184Z,95501.31
2022-09-09T06:21:05.305Z,95491.69
2022-09-09T06:23:33.403Z,95475.47
2022-09-09T06:26:07.064Z,95505.13
2022-09-09T06:28:35.345Z,95511.66
2022-09-09T06:31:05.259Z,95509.03
2022-09-09T06:33:36.041Z,95508.75
2022-09-09T06:36:05.249Z,95510.66
2022-09-09T06:38:33.191Z,95499.97
2022-09-09T06:41:02.960Z,95491.81
2022-09-09T06:43:31.488Z,95481.78
2022-09-09T06:46:01.357Z,95463.59
2022-09-09T06:48:30.013Z,95472.84
2022-09-09T06:51:08.014Z,95474.88
2022-09-09T06:53:37.577Z,95486.41
2022-09-09T06:56:20.531Z,95506.66
2022-09-09T06:58:49.889Z,95495.19
2022-09-09T07:01:19.818Z,95510.88
2022-09-09T07:03:51.159Z,95502.41
2022-09-09T07:06:22.892Z,95381.06
2022-09-09T07:08:56.427Z,95503.19
2022-09-09T07:11:27.910Z,95502.41
2022-09-09T07:13:56.583Z,95504.56
2022-09-09T07:16:25.832Z,95468.44
2022-09-09T07:18:58.637Z,95495.13
2022-09-09T07:21:29.087Z,95497.13
2022-09-09T07:23:57.113Z,95473.63
2022-09-09T07:26:27.508Z,95487.53
2022-09-09T07:28:56.723Z,95479.09
2022-09-09T07:31:27.194Z,95482.47
2022-09-09T07:33:55.961Z,95496.69
2022-09-09T07:36:26.443Z,95448.31
2022-09-09T07:39:00.276Z,95487.94
2022-09-09T07:41:31.265Z,95475.41
2022-09-09T07:43:59.387Z,95469.56
2022-09-09T07:46:29.107Z,95496.16
2022-09-09T07:48:59.159Z,95381.16
2022-09-09T07:51:29.665Z,95487.78
2022-09-09T07:54:01.066Z,95494.00
2022-09-09T07:56:30.380Z,95488.13
2022-09-09T07:58:59.713Z,95492.22
2022-09-09T08:01:30.901Z,95490.59
2022-09-09T08:04:02.078Z,95481.81
2022-09-09T08:06:31.711Z,95479.56
2022-09-09T08:09:01.079Z,95491.22
2022-09-09T08:11:35.348Z,95487.53
2022-09-09T08:14:06.212Z,95479.66
2022-09-09T08:16:37.492Z,95486.34
2022-09-09T08:19:06.600Z,95488.56
2022-09-09T08:21:34.700Z,95485.28
2022-09-09T08:24:05.954Z,95441.19
2022-09-09T08:26:36.455Z,95466.44
2022-09-09T08:29:06.232Z,95495.66
2022-09-09T08:31:35.938Z,95489.00
2022-09-09T08:34:05.560Z,95487.53
2022-09-09T08:36:35.457Z,95478.16
2022-09-09T08:39:06.717Z,95484.25
2022-09-09T08:41:49.123Z,95467.72
2022-09-09T08:44:29.362Z,95475.66
2022-09-09T08:47:07.433Z,95469.78
2022-09-09T08:50:01.302Z,95470.13
2022-09-09T08:52:32.005Z,95475.72
2022-09-09T08:55:23.915Z,95404.38
2022-09-09T08:57:54.897Z,95463.25
2022-09-09T09:00:23.352Z,95457.22
2022-09-09T09:03:00.821Z,95467.69
2022-09-09T09:05:35.063Z,95458.81
2022-09-09T09:08:14.660Z,95466.88
2022-09-09T09:10:49.815Z,95452.47
2022-09-09T09:13:22.113Z,95467.75
2022-09-09T09:15:57.741Z,95455.72
2022-09-09T09:18:25.661Z,95459.91
2022-09-09T09:21:04.972Z,95461.91
2022-09-09T09:23:43.209Z,95430.47
2022-09-09T09:26:13.229Z,95458.72
2022-09-09T09:28:42.306Z,95452.72
2022-09-09T09:31:12.862Z,95460.19
2022-09-09T09:33:48.667Z,95424.56
2022-09-09T09:36:17.416Z,95460.78
2022-09-09T09:41:46.647Z,95450.41
2022-09-09T09:44:25.822Z,95446.75
2022-09-09T09:46:54.635Z,95443.13
2022-09-09T09:49:22.527Z,95439.41
2022-09-09T09:51:50.421Z,95438.50
2022-09-09T09:54:24.063Z,95428.06
2022-09-09T09:56:53.891Z,95430.00
2022-09-09T09:59:38.814Z,95424.31
2022-09-09T10:02:25.785Z,95427.13
2022-09-09T10:05:03.673Z,95425.97
2022-09-09T10:07:32.144Z,95422.25
2022-09-09T10:10:00.247Z,95416.00
2022-09-09T10:12:45.209Z,95438.13
2022-09-09T10:15:31.914Z,95401.06
2022-09-09T10:18:08.131Z,95439.06
2022-09-09T10:20:47.496Z,95445.41
2022-09-09T10:23:31.999Z,95443.34
2022-09-09T10:26:22.153Z,95440.59
2022-09-09T10:29:07.910Z,95445.09
2022-09-09T10:31:46.435Z,95441.13
2022-09-09T10:34:29.786Z,95436.63
2022-09-09T10:37:00.594Z,95441.09
2022-09-09T10:39:40.693Z,95448.78
2022-09-09T10:42:14.778Z,95443.97
2022-09-09T10:45:01.552Z,95435.41
2022-09-09T10:47:45.209Z,95418.09
2022-09-09T10:51:07.152Z,95443.94
2022-09-09T10:53:47.882Z,95445.56
2022-09-09T10:56:19.633Z,95452.84
2022-09-09T10:58:53.804Z,95447.41
2022-09-09T11:01:26.081Z,95433.47
2022-09-09T11:03:59.363Z,95446.00
2022-09-09T11:06:33.755Z,95443.41
2022-09-09T11:09:04.577Z,95445.84
2022-09-09T11:11:38.682Z,95435.34
2022-09-09T11:14:13.959Z,95445.38
2022-09-09T11:16:49.158Z,95421.94
2022-09-09T11:19:22.347Z,95431.91
2022-09-09T11:21:53.002Z,95390.72
2022-09-09T11:24:27.832Z,95429.06
2022-09-09T11:26:59.653Z,95427.50
2022-09-09T11:29:53.560Z,95422.56
2022-09-09T11:32:48.909Z,95381.63
2022-09-09T11:35:29.899Z,95360.38
2022-09-09T11:38:19.166Z,95421.69
2022-09-09T11:40:48.624Z,95384.03
2022-09-09T11:43:26.375Z,95393.72
2022-09-09T11:46:00.525Z,95379.94
2022-09-09T11:48:35.987Z,95390.88
2022-09-09T11:51:10.119Z,95370.88
2022-09-09T11:53:51.003Z,95365.16
2022-09-09T11:56:29.108Z,95358.34
2022-09-09T11:59:00.417Z,95356.78
2022-09-09T12:01:32.440Z,95361.22
2022-09-09T12:04:30.164Z,95364.03
2022-09-09T12:07:01.451Z,95347.78
2022-09-09T12:09:47.058Z,95355.06
2022-09-09T12:12:29.193Z,95360.25
2022-09-09T12:15:03.741Z,95328.88
2022-09-09T12:17:35.375Z,95347.31
2022-09-09T12:20:10.959Z,95337.59
2022-09-09T12:22:51.052Z,95347.16
2022-09-09T12:25:29.532Z,95329.19
2022-09-09T12:28:07.626Z,95344.81
2022-09-09T12:30:44.341Z,95342.34
2022-09-09T12:33:14.954Z,95323.78
2022-09-09T12:35:48.794Z,95326.59
2022-09-09T12:38:24.621Z,95327.13
2022-09-09T12:40:58.414Z,95328.28
2022-09-09T12:43:28.397Z,95301.13
2022-09-09T12:46:01.474Z,95286.41
2022-09-09T12:48:37.765Z,95315.31
2022-09-09T12:51:16.460Z,95278.44
2022-09-09T12:53:46.704Z,95310.41
2022-09-09T12:56:21.760Z,95312.19
2022-09-09T12:58:53.538Z,95283.47
2022-09-09T13:01:25.769Z,95304.75
2022-09-09T13:03:54.587Z,95296.06
2022-09-09T13:06:29.699Z,95265.91
2022-09-09T13:08:59.573Z,95300.63
2022-09-09T13:11:32.914Z,95287.34
2022-09-09T13:14:01.489Z,95173.75
2022-09-09T13:16:32.938Z,95293.97
2022-09-09T13:19:02.770Z,95294.56
2022-09-09T13:21:36.881Z,95285.91
2022-09-09T13:24:08.574Z,95288.41
2022-09-09T13:26:36.994Z,95282.22
2022-09-09T13:29:19.899Z,95277.72
2022-09-09T13:31:48.265Z,95224.28
2022-09-09T13:34:28.360Z,95269.63
2022-09-09T13:37:03.397Z,95233.22
2022-09-09T13:39:31.704Z,95268.50
2022-09-09T13:41:59.891Z,95268.44
2022-09-09T13:44:31.119Z,95273.03
2022-09-09T13:47:08.029Z,95267.25
2022-09-09T13:49:38.094Z,95251.38
2022-09-09T13:52:11.885Z,95241.25
2022-09-09T13:54:40.258Z,95259.22
2022-09-09T13:57:18.238Z,95246.75
2022-09-09T14:00:05.090Z,95251.38
2022-09-09T14:02:34.701Z,95250.97
2022-09-09T14:05:02.747Z,95219.19
2022-09-09T14:07:33.062Z,95250.84
2022-09-09T14:10:01.389Z,95253.59
2022-09-09T14:12:29.497Z,95249.28
2022-09-09T14:14:57.339Z,95241.28
2022-09-09T14:17:26.126Z,95241.16
2022-09-09T14:19:54.069Z,95244.41
2022-09-09T14:22:22.297Z,95229.75
2022-09-09T14:24:52.004Z,95230.75
2022-09-09T14:27:20.860Z,95219.19
2022-09-09T14:29:48.729Z,95225.19
2022-09-09T14:32:16.636Z,95228.19
2022-09-09T14:34:44.514Z,95235.97
2022-09-09T14:37:12.516Z,95218.09
2022-09-09T14:39:40.452Z,95234.78
2022-09-09T14:42:12.061Z,95233.78
2022-09-09T14:44:40.254Z,95235.53
2022-09-09T14:47:09.035Z,95226.47
2022-09-09T14:49:37.380Z,95230.78
2022-09-09T14:52:06.037Z,95221.03
2022-09-09T14:54:34.341Z,95226.47
2022-09-09T14:57:02.208Z,95228.91
2022-09-09T14:59:31.458Z,95230.31
2022-09-09T15:01:59.566Z,95229.19
2022-09-09T15:04:28.376Z,95212.97
2022-09-09T15:06:56.224Z,95232.69
2022-09-09T15:09:24.184Z,95191.38
2022-09-09T15:11:52.053Z,95194.34
2022-09-09T15:14:23.925Z,95249.13
2022-09-09T15:16:55.078Z,95241.75
2022-09-09T15:19:23.003Z,95243.41
2022-09-09T15:21:50.995Z,95232.06
2022-09-09T15:24:18.851Z,95241.09
2022-09-09T15:26:46.704Z,95252.91
2022-09-09T15:29:14.813Z,95251.28
2022-09-09T15:31:42.752Z,95238.53
2022-09-09T15:34:12.347Z,95237.78
2022-09-09T15:36:42.290Z,95237.09
2022-09-09T15:39:13.711Z,95236.75
2022-09-09T15:41:42.088Z,95239.97
2022-09-09T15:44:12.076Z,95238.06
2022-09-09T15:46:41.832Z,95229.41
2022-09-09T15:49:12.614Z,95228.13
2022-09-09T15:51:43.853Z,95215.22
2022-09-09T15:54:14.018Z,95230.16
2022-09-09T15:56:42.736Z,95211.75
2022-09-09T15:59:10.960Z,95214.63
2022-09-09T16:01:40.452Z,95218.75
2022-09-09T16:04:08.457Z,95216.88
2022-09-09T16:06:37.855Z,95216.53
2022-09-09T16:09:08.187Z,95220.59
2022-09-09T16:11:38.404Z,95204.66
2022-09-09T16:14:07.516Z,95174.56
2022-09-09T16:16:36.971Z,95224.13
2022-09-09T16:19:07.506Z,95177.56
2022-09-09T16:21:40.657Z,95216.44
2022-09-09T16:24:10.868Z,95221.97
2022-09-09T16:26:41.830Z,95217.31
2022-09-09T16:29:10.432Z,95216.25
2022-09-09T16:31:38.914Z,95215.56
2022-09-09T16:34:06.871Z,95213.31
2022-09-09T16:36:38.036Z,95218.50
2022-09-09T16:39:08.047Z,95200.78
2022-09-09T16:41:35.932Z,95223.34
2022-09-09T16:44:05.637Z,95220.69
2022-09-09T16:46:36.525Z,95232.59
2022-09-09T16:49:07.132Z,95230.69
2022-09-09T16:51:38.005Z,95231.97
2022-09-09T16:54:08.650Z,95210.97
2022-09-09T16:56:39.073Z,95217.25
2022-09-09T16:59:09.066Z,95223.22
2022-09-09T17:01:39.397Z,95119.47
2022-09-09T17:04:09.352Z,95219.78
2022-09-09T17:06:39.469Z,95219.78
2022-09-09T17:09:09.397Z,95235.78
2022-09-09T17:11:37.869Z,95237.81
2022-09-09T17:14:06.795Z,95233.69
2022-09-09T17:16:36.278Z,95225.59
2022-09-09T17:19:05.773Z,95125.78
2022-09-09T17:21:34.491Z,95238.72
2022-09-09T17:24:04.243Z,95244.78
2022-09-09T17:26:35.151Z,95245.50
2022-09-09T17:29:04.512Z,95218.97
2022-09-09T17:31:33.663Z,95241.38
2022-09-09T17:34:02.389Z,95239.16
2022-09-09T17:36:33.268Z,95235.06
2022-09-09T17:39:03.584Z,95246.75
2022-09-09T17:41:33.187Z,95259.66
2022-09-09T17:44:02.039Z,95254.34
2022-09-09T17:46:32.581Z,95266.38
2022-09-09T17:49:02.139Z,95265.63
2022-09-09T17:51:32.119Z,95278.38
2022-09-09T17:54:01.980Z,95290.34
2022-09-09T17:56:33.287Z,95292.69
2022-09-09T17:59:02.612Z,95289.94
2022-09-09T18:01:32.347Z,95279.88
2022-09-09T18:04:02.160Z,95288.59
2022-09-09T18:06:33.830Z,95295.31
2022-09-09T18:09:03.626Z,95279.38
2022-09-09T18:11:38.679Z,95286.41
2022-09-09T18:14:07.228Z,95301.66
2022-09-09T18:16:36.406Z,95268.88
2022-09-09T18:19:06.381Z,95313.31
2022-09-09T18:21:35.378Z,95313.38
2022-09-09T18:24:05.859Z,95311.88
2022-09-09T18:26:36.589Z,95318.09
2022-09-09T18:29:07.802Z,95318.81
2022-09-09T18:31:37.809Z,95316.41
2022-09-09T18:34:07.903Z,95321.91
2022-09-09T18:36:38.588Z,95324.66
2022-09-09T18:39:09.500Z,95322.72
2022-09-09T18:41:39.995Z,95329.00
2022-09-09T18:44:10.304Z,95328.50
2022-09-09T18:46:39.926Z,95275.81
2022-09-09T18:49:08.746Z,95329.63
2022-09-09T18:51:37.197Z,95335.06
2022-09-09T18:54:07.913Z,95271.88
2022-09-09T18:56:36.982Z,95332.38
2022-09-09T18:59:08.190Z,95325.84
2022-09-09T19:01:36.711Z,95330.63
2022-09-09T19:04:06.171Z,95294.00
2022-09-09T19:06:35.745Z,95316.97
2022-09-09T19:09:04.051Z,95308.81
2022-09-09T19:11:33.321Z,95319.75
2022-09-09T19:14:03.409Z,95318.63
2022-09-09T19:16:35.728Z,95321.00
2022-09-09T19:19:06.277Z,95292.59
2022-09-09T19:21:36.619Z,95309.81
2022-09-09T19:24:06.702Z,95307.16
2022-09-09T19:26:40.532Z,95307.25
2022-09-09T19:29:10.174Z,95308.84
2022-09-09T19:31:41.514Z,95301.41
2022-09-09T19:34:14.483Z,95293.34
2022-09-09T19:36:43.219Z,95295.31
2022-09-09T19:39:12.507Z,95266.03
2022-09-09T19:41:40.455Z,95301.25
2022-09-09T19:44:11.983Z,95285.53
2022-09-09T19:46:44.645Z,95290.25
2022-09-09T19:49:12.778Z,95293.00
2022-09-09T19:51:41.334Z,95293.72
2022-09-09T19:54:11.171Z,95282.72
2022-09-09T19:56:40.541Z,95285.09
2022-09-09T19:59:10.699Z,95259.28
2022-09-09T20:01:40.890Z,95274.94
2022-09-09T20:04:10.406Z,95279.28
2022-09-09T20:06:40.631Z,95272.97
2022-09-09T20:09:11.949Z,95251.44
2022-09-09T20:11:40.172Z,95257.53
2022-09-09T20:14:08.657Z,95247.31
2022-09-09T20:16:37.344Z,95250.53
2022-09-09T20:19:07.430Z,95195.16
2022-09-09T20:21:41.029Z,95264.00
2022-09-09T20:24:13.833Z,95260.63
2022-09-09T20:26:42.116Z,95258.00
2022-09-09T20:29:15.923Z,95252.56
2022-09-09T20:31:45.628Z,95268.69
2022-09-09T20:34:15.603Z,95261.31
2022-09-09T20:36:45.371Z,95261.34
2022-09-09T20:39:15.109Z,95212.97
2022-09-09T20:41:45.448Z,95272.44
2022-09-09T20:44:16.107Z,95220.44
2022-09-09T20:46:48.118Z,95263.34
2022-09-09T20:49:17.508Z,95266.94
2022-09-09T20:51:47.661Z,95271.69
2022-09-09T20:54:18.869Z,95257.63
2022-09-09T20:56:48.161Z,95205.31
2022-09-09T20:59:18.156Z,95271.69
2022-09-09T21:01:47.906Z,95267.00
2022-09-09T21:04:17.188Z,95267.38
2022-09-09T21:06:46.774Z,95273.25
2022-09-09T21:09:15.113Z,95283.03
2022-09-09T21:11:43.130Z,95279.41
2022-09-09T21:14:11.993Z,95261.81
2022-09-09T21:16:39.997Z,95281.28
2022-09-09T21:19:07.996Z,95268.00
2022-09-09T21:21:36.238Z,95282.53
2022-09-09T21:24:06.352Z,95282.91
2022-09-09T21:26:35.499Z,95284.44
2022-09-09T21:29:03.397Z,95278.19
2022-09-09T21:31:31.545Z,95257.19
2022-09-09T21:33:59.917Z,95276.81
2022-09-09T21:36:28.583Z,95275.66
2022-09-09T21:38:59.289Z,95271.41
2022-09-09T21:41:28.786Z,95273.31
2022-09-09T21:43:57.078Z,95277.59
2022-09-09T21:46:26.739Z,95272.91
2022-09-09T21:48:56.496Z,95281.44
2022-09-09T21:51:24.852Z,95279.06
2022-09-09T21:53:56.416Z,95259.44
2022-09-09T21:56:24.725Z,95214.13
2022-09-09T21:58:57.867Z,95269.63
2022-09-09T22:01:26.568Z,95272.88
2022-09-09T22:03:54.533Z,95267.44
2022-09-09T22:06:22.380Z,95268.22
2022-09-09T22:08:50.246Z,95270.97
2022-09-09T22:11:19.761Z,95272.91
2022-09-09T22:13:48.411Z,95256.78
2022-09-09T22:16:20.733Z,95262.97
2022-09-09T22:18:56.752Z,95267.25
2022-09-09T22:21:26.111Z,95261.78
2022-09-09T22:23:54.694Z,95265.75
2022-09-09T22:26:23.224Z,95270.47
2022-09-09T22:28:51.794Z,95258.41
2022-09-09T22:31:22.847Z,95261.47
2022-09-09T22:33:51.841Z,95268.16
2022-09-09T22:36:20.883Z,95268.22
2022-09-09T22:38:49.001Z,95245.19
2022-09-09T22:41:17.116Z,95257.28
2022-09-09T22:43:45.569Z,95254.91
2022-09-09T22:46:14.031Z,95261.94
2022-09-09T22:48:43.268Z,95257.25
2022-09-09T22:51:13.539Z,95259.56
2022-09-09T22:53:42.390Z,95261.94
2022-09-09T22:56:14.733Z,95258.03
2022-09-09T22:58:42.690Z,95253.31
2022-09-09T23:01:15.444Z,95247.44
2022-09-09T23:03:46.548Z,95251.38
2022-09-09T23:06:22.004Z,95247.09
2022-09-09T23:08:52.182Z,95224.78
2022-09-09T23:11:20.177Z,95247.03
2022-09-09T23:13:52.480Z,95243.16
2022-09-09T23:16:22.191Z,95257.56
2022-09-09T23:18:52.201Z,95253.25
2022-09-09T23:21:20.816Z,95250.13
2022-09-09T23:23:49.076Z,95245.47
2022-09-09T23:26:20.918Z,95240.38
2022-09-09T23:28:51.885Z,95242.34
2022-09-09T23:31:22.036Z,95239.19
2022-09-09T23:33:53.276Z,95232.16
2022-09-09T23:36:23.220Z,95212.25
2022-09-09T23:38:51.454Z,95229.84
2022-09-09T23:41:21.139Z,95223.56
2022-09-09T23:43:49.580Z,95185.66
2022-09-09T23:46:20.289Z,95214.97
2022-09-09T23:48:50.687Z,95210.66
2022-09-09T23:51:23.840Z,95216.63
2022-09-09T23:53:53.625Z,95204.53
2022-09-09T23:56:22.012Z,95219.41
2022-09-09T23:58:50.368Z,95220.59
